Terminal Aerodrome Forecast
Issued by NWS

Home | Current Version | Previous Version | Text Only | Print | Product List | Glossary On
Versions: 1 2 3 4 5 6 7 8 9 10 11 12
000
FTUS44 KJAN 200500
TAFHKS
TAF
KHKS 200529Z 2006/2106 05006KT P6SM VCSH BKN015 OVC035
     FM201000 01005KT 5SM BR BKN003 OVC015
     FM201400 02007KT P6SM BKN007 OVC025
     FM201700 02007KT P6SM BKN015 OVC040
     FM201900 02008KT P6SM SCT030 BKN050=

USA.gov is the U.S. government's official web portal to all federal, state and local government web resources and services.